createdAt,value
2018-04-17T00:00:39.765Z,10.65
2018-04-17T00:01:39.957Z,10.57
2018-04-17T00:02:40.142Z,10.60
2018-04-17T00:03:40.328Z,10.57
2018-04-17T00:04:40.515Z,10.52
2018-04-17T00:05:40.702Z,10.45
2018-04-17T00:06:40.888Z,10.39
2018-04-17T00:07:41.074Z,10.41
2018-04-17T00:08:41.259Z,10.43
2018-04-17T00:09:41.448Z,10.36
2018-04-17T00:10:41.635Z,10.26
2018-04-17T00:11:41.822Z,10.28
2018-04-17T00:12:42.008Z,10.24
2018-04-17T00:13:42.195Z,10.30
2018-04-17T00:14:42.383Z,10.36
2018-04-17T00:15:42.567Z,10.31
2018-04-17T00:16:42.755Z,10.26
2018-04-17T00:17:42.940Z,10.20
2018-04-17T00:18:43.126Z,10.16
2018-04-17T00:19:43.312Z,10.05
2018-04-17T00:20:43.501Z,10.09
2018-04-17T00:21:43.688Z,10.10
2018-04-17T00:22:43.875Z,10.06
2018-04-17T00:23:44.060Z,10.08
2018-04-17T00:24:44.247Z,9.98
2018-04-17T00:25:44.436Z,10.06
2018-04-17T00:26:44.620Z,10.01
2018-04-17T00:27:44.808Z,9.96
2018-04-17T00:28:45.002Z,9.85
2018-04-17T00:29:45.183Z,9.96
2018-04-17T00:30:45.368Z,9.84
2018-04-17T00:31:45.556Z,9.94
2018-04-17T00:32:45.741Z,9.98
2018-04-17T00:33:45.930Z,9.93
2018-04-17T00:34:46.114Z,9.98
2018-04-17T00:35:46.305Z,10.01
2018-04-17T00:36:46.494Z,9.91
2018-04-17T00:37:46.671Z,9.94
2018-04-17T00:38:46.862Z,9.93
2018-04-17T00:39:47.046Z,10.01
2018-04-17T00:40:47.231Z,10.01
2018-04-17T00:41:47.419Z,9.91
2018-04-17T00:42:47.603Z,10.06
2018-04-17T00:43:47.790Z,10.08
2018-04-17T00:44:47.977Z,10.12
2018-04-17T00:45:48.165Z,10.06
2018-04-17T00:46:48.350Z,10.12
2018-04-17T00:47:48.537Z,10.03
2018-04-17T00:48:48.722Z,10.10
2018-04-17T00:49:48.909Z,10.03
2018-04-17T00:50:49.095Z,9.91
2018-04-17T00:51:49.282Z,9.98
2018-04-17T00:52:49.469Z,9.87
2018-04-17T00:53:49.656Z,9.83
2018-04-17T00:54:49.840Z,9.81
2018-04-17T00:55:50.027Z,9.70
2018-04-17T00:56:50.234Z,9.84
2018-04-17T00:57:50.401Z,9.73
2018-04-17T00:58:50.586Z,9.75
2018-04-17T00:59:50.772Z,9.81
2018-04-17T01:00:50.957Z,9.75
2018-04-17T01:01:51.150Z,9.87
2018-04-17T01:02:51.327Z,9.93
2018-04-17T01:03:51.515Z,9.93
2018-04-17T01:04:51.702Z,10.01
2018-04-17T01:05:51.887Z,10.02
2018-04-17T01:06:52.071Z,10.01
2018-04-17T01:07:52.257Z,9.93
2018-04-17T01:08:52.444Z,9.91
2018-04-17T01:09:52.630Z,9.99
2018-04-17T01:10:52.816Z,10.05
2018-04-17T01:11:53.001Z,10.05
2018-04-17T01:12:53.188Z,10.08
2018-04-17T01:13:53.375Z,10.09
2018-04-17T01:14:53.562Z,9.96
2018-04-17T01:15:53.746Z,9.94
2018-04-17T01:16:53.935Z,9.90
2018-04-17T01:17:54.126Z,9.94
2018-04-17T01:18:54.306Z,9.88
2018-04-17T01:19:54.493Z,9.84
2018-04-17T01:20:54.681Z,9.93
2018-04-17T01:21:54.867Z,9.91
2018-04-17T01:22:55.052Z,9.81
2018-04-17T01:23:55.239Z,9.81
2018-04-17T01:24:55.426Z,9.77
2018-04-17T01:25:55.612Z,9.75
2018-04-17T01:26:55.798Z,9.78
2018-04-17T01:27:55.984Z,9.81
2018-04-17T01:28:56.172Z,9.80
2018-04-17T01:29:56.363Z,9.70
2018-04-17T01:30:56.546Z,9.77
2018-04-17T01:31:56.734Z,9.77
2018-04-17T01:32:56.921Z,9.72
2018-04-17T01:33:57.110Z,9.73
2018-04-17T01:34:57.294Z,9.63
2018-04-17T01:35:57.477Z,9.65
2018-04-17T01:36:57.664Z,9.55
2018-04-17T01:37:57.850Z,9.59
2018-04-17T01:38:58.037Z,9.51
2018-04-17T01:39:58.223Z,9.50
2018-04-17T01:40:58.409Z,9.57
2018-04-17T01:41:58.594Z,9.52
2018-04-17T01:42:58.781Z,9.57
2018-04-17T01:43:58.968Z,9.55
2018-04-17T01:44:59.163Z,9.54
2018-04-17T01:45:59.342Z,9.45
2018-04-17T01:46:59.528Z,9.59
2018-04-17T01:47:59.712Z,9.59
2018-04-17T01:48:59.900Z,9.59
2018-04-17T01:50:00.087Z,9.62
2018-04-17T01:51:00.273Z,9.75
2018-04-17T01:52:00.460Z,9.77
2018-04-17T01:53:00.652Z,9.73
2018-04-17T01:54:00.837Z,9.83
2018-04-17T01:55:01.022Z,9.90
2018-04-17T01:56:01.211Z,9.90
2018-04-17T01:57:01.398Z,9.87
2018-04-17T01:58:01.580Z,9.93
2018-04-17T01:59:01.769Z,9.90
2018-04-17T02:00:01.954Z,9.85
2018-04-17T02:01:02.141Z,9.69
2018-04-17T02:02:02.329Z,9.63
2018-04-17T02:03:02.516Z,9.59
2018-04-17T02:04:02.703Z,9.63
2018-04-17T02:05:02.892Z,9.57
2018-04-17T02:06:03.074Z,9.60
2018-04-17T02:07:03.263Z,9.54
2018-04-17T02:08:03.453Z,9.54
2018-04-17T02:09:03.637Z,9.67
2018-04-17T02:10:03.824Z,9.54
2018-04-17T02:11:04.017Z,9.63
2018-04-17T02:12:04.198Z,9.54
2018-04-17T02:13:04.383Z,9.60
2018-04-17T02:14:04.569Z,9.47
2018-04-17T02:15:04.758Z,9.47
2018-04-17T02:16:04.944Z,9.48
2018-04-17T02:17:05.129Z,9.55
2018-04-17T02:18:05.321Z,9.54
2018-04-17T02:19:05.503Z,9.44
2018-04-17T02:20:05.914Z,9.50
2018-04-17T02:21:05.872Z,9.44
2018-04-17T02:22:06.066Z,9.52
2018-04-17T02:23:06.246Z,9.52
2018-04-17T02:24:06.431Z,9.54
2018-04-17T02:25:06.619Z,9.52
2018-04-17T02:26:06.805Z,9.54
2018-04-17T02:27:06.991Z,9.54
2018-04-17T02:28:07.179Z,9.54
2018-04-17T02:29:07.363Z,9.60
2018-04-17T02:30:07.549Z,9.65
2018-04-17T02:31:07.736Z,9.57
2018-04-17T02:32:07.923Z,9.51
2018-04-17T02:33:08.109Z,9.48
2018-04-17T02:34:08.296Z,9.51
2018-04-17T02:35:08.483Z,9.40
2018-04-17T02:36:08.668Z,9.55
2018-04-17T02:37:08.857Z,9.48
2018-04-17T02:38:09.043Z,9.36
2018-04-17T02:39:09.228Z,9.45
2018-04-17T02:40:09.418Z,9.41
2018-04-17T02:41:09.603Z,9.36
2018-04-17T02:42:09.789Z,9.41
2018-04-17T02:43:09.975Z,9.45
2018-04-17T02:44:10.159Z,9.41
2018-04-17T02:45:10.346Z,9.37
2018-04-17T02:46:10.535Z,9.40
2018-04-17T02:47:10.718Z,9.34
2018-04-17T02:48:10.903Z,9.45
2018-04-17T02:49:11.091Z,9.41
2018-04-17T02:50:11.277Z,9.30
2018-04-17T02:51:11.465Z,9.34
2018-04-17T02:52:11.648Z,9.33
2018-04-17T02:53:11.840Z,9.27
2018-04-17T02:54:12.019Z,9.24
2018-04-17T02:55:12.209Z,9.23
2018-04-17T02:56:12.389Z,9.22
2018-04-17T02:57:12.618Z,9.14
2018-04-17T02:58:12.752Z,9.11
2018-04-17T02:59:12.953Z,9.08
2018-04-17T03:00:13.116Z,9.09
2018-04-17T03:01:13.303Z,9.04
2018-04-17T03:02:13.490Z,9.03
2018-04-17T03:03:13.679Z,9.04
2018-04-17T03:04:13.862Z,9.09
2018-04-17T03:05:14.050Z,8.99
2018-04-17T03:06:14.235Z,8.99
2018-04-17T03:07:14.423Z,8.95
2018-04-17T03:08:14.608Z,8.96
2018-04-17T03:09:14.794Z,8.98
2018-04-17T03:10:14.981Z,9.08
2018-04-17T03:11:15.168Z,9.12
2018-04-17T03:12:15.353Z,8.98
2018-04-17T03:13:15.540Z,8.96
2018-04-17T03:14:15.726Z,8.95
2018-04-17T03:15:15.911Z,9.01
2018-04-17T03:16:16.097Z,8.95
2018-04-17T03:17:16.282Z,9.06
2018-04-17T03:18:16.468Z,8.99
2018-04-17T03:19:16.657Z,8.96
2018-04-17T03:20:16.844Z,8.93
2018-04-17T03:21:17.028Z,8.99
2018-04-17T03:22:17.216Z,8.98
2018-04-17T03:23:17.403Z,9.03
2018-04-17T03:24:17.589Z,8.99
2018-04-17T03:25:17.777Z,9.06
2018-04-17T03:26:17.966Z,8.95
2018-04-17T03:27:18.150Z,9.03
2018-04-17T03:28:18.336Z,9.03
2018-04-17T03:29:18.521Z,8.99
2018-04-17T03:30:18.709Z,8.96
2018-04-17T03:31:18.894Z,8.89
2018-04-17T03:32:19.080Z,8.89
2018-04-17T03:33:19.265Z,8.95
2018-04-17T03:34:19.450Z,8.83
2018-04-17T03:35:19.635Z,8.88
2018-04-17T03:36:19.822Z,8.90
2018-04-17T03:37:20.009Z,8.72
2018-04-17T03:38:20.194Z,8.72
2018-04-17T03:39:20.382Z,8.80
2018-04-17T03:40:20.568Z,8.81
2018-04-17T03:41:20.757Z,8.70
2018-04-17T03:42:20.939Z,8.83
2018-04-17T03:43:21.126Z,8.78
2018-04-17T03:44:21.312Z,8.67
2018-04-17T03:45:21.497Z,8.68
2018-04-17T03:46:21.682Z,8.68
2018-04-17T03:47:21.872Z,8.70
2018-04-17T03:48:22.055Z,8.75
2018-04-17T03:49:22.242Z,8.74
2018-04-17T03:50:22.427Z,8.70
2018-04-17T03:51:22.618Z,8.85
2018-04-17T03:52:22.800Z,8.78
2018-04-17T03:53:22.984Z,8.80
2018-04-17T03:54:23.174Z,8.93
2018-04-17T03:55:23.357Z,8.88
2018-04-17T03:56:23.543Z,8.90
2018-04-17T03:57:23.729Z,8.92
2018-04-17T03:58:23.917Z,8.81
2018-04-17T03:59:24.100Z,8.81
2018-04-17T04:00:24.287Z,8.72
2018-04-17T04:01:24.472Z,8.72
2018-04-17T04:02:24.658Z,8.81
2018-04-17T04:03:24.843Z,8.68
2018-04-17T04:04:25.031Z,8.72
2018-04-17T04:05:25.217Z,8.71
2018-04-17T04:06:25.403Z,8.75
2018-04-17T04:07:25.591Z,8.75
2018-04-17T04:08:25.777Z,8.75
2018-04-17T04:09:25.962Z,8.70
2018-04-17T04:10:26.148Z,8.70
2018-04-17T04:11:26.393Z,8.67
2018-04-17T04:12:26.520Z,8.68
2018-04-17T04:13:26.706Z,8.59
2018-04-17T04:14:26.892Z,8.63
2018-04-17T04:15:27.076Z,8.60
2018-04-17T04:16:27.260Z,8.62
2018-04-17T04:17:27.446Z,8.67
2018-04-17T04:18:27.631Z,8.65
2018-04-17T04:19:27.819Z,8.62
2018-04-17T04:20:28.006Z,8.60
2018-04-17T04:21:28.191Z,8.57
2018-04-17T04:22:28.376Z,8.56
2018-04-17T04:23:28.562Z,8.55
2018-04-17T04:24:28.749Z,8.53
2018-04-17T04:25:28.936Z,8.57
2018-04-17T04:26:29.123Z,8.56
2018-04-17T04:27:29.320Z,8.57
2018-04-17T04:28:29.495Z,8.41
2018-04-17T04:29:29.679Z,8.44
2018-04-17T04:30:29.864Z,8.38
2018-04-17T04:31:30.048Z,8.39
2018-04-17T04:32:30.235Z,8.42
2018-04-17T04:33:30.423Z,8.39
2018-04-17T04:34:30.608Z,8.39
2018-04-17T04:35:30.797Z,8.49
2018-04-17T04:36:30.984Z,8.37
2018-04-17T04:37:31.173Z,8.42
2018-04-17T04:38:31.354Z,8.44
2018-04-17T04:39:31.541Z,8.50
2018-04-17T04:40:31.729Z,8.44
2018-04-17T04:41:31.914Z,8.46
2018-04-17T04:42:32.100Z,8.37
2018-04-17T04:43:32.285Z,8.53
2018-04-17T04:44:32.472Z,8.47
2018-04-17T04:45:32.655Z,8.59
2018-04-17T04:46:32.839Z,8.50
2018-04-17T04:47:33.026Z,8.55
2018-04-17T04:48:33.211Z,8.49
2018-04-17T04:49:33.397Z,8.49
2018-04-17T04:50:33.585Z,8.57
2018-04-17T04:51:33.769Z,8.59
2018-04-17T04:52:33.956Z,8.56
2018-04-17T04:53:34.141Z,8.57
2018-04-17T04:54:34.328Z,8.60
2018-04-17T04:55:34.517Z,8.67
2018-04-17T04:56:34.696Z,8.75
2018-04-17T04:57:34.882Z,8.71
2018-04-17T04:58:35.070Z,8.70
2018-04-17T04:59:35.259Z,8.67
2018-04-17T05:00:35.442Z,8.83
2018-04-17T05:01:35.633Z,8.80
2018-04-17T05:02:35.813Z,8.85
2018-04-17T05:03:36.002Z,8.90
2018-04-17T05:04:36.185Z,8.96
2018-04-17T05:05:36.372Z,9.04
2018-04-17T05:06:36.559Z,9.16
2018-04-17T05:07:36.749Z,9.22
2018-04-17T05:08:36.933Z,9.32
2018-04-17T05:09:37.118Z,9.34
2018-04-17T05:10:37.304Z,9.19
2018-04-17T05:11:37.491Z,9.16
2018-04-17T05:12:37.675Z,9.23
2018-04-17T05:13:37.864Z,9.30
2018-04-17T05:14:38.051Z,9.45
2018-04-17T05:15:38.239Z,9.55
2018-04-17T05:16:38.424Z,9.57
2018-04-17T05:17:38.610Z,9.69
2018-04-17T05:18:38.796Z,9.75
2018-04-17T05:19:38.983Z,9.78
2018-04-17T05:20:39.168Z,9.75
2018-04-17T05:21:39.366Z,9.70
2018-04-17T05:22:39.542Z,9.57
2018-04-17T05:23:39.731Z,9.54
2018-04-17T05:24:39.917Z,9.51
2018-04-17T05:25:40.104Z,9.44
2018-04-17T05:26:40.294Z,9.36
2018-04-17T05:27:40.480Z,9.30
2018-04-17T05:28:40.666Z,9.19
2018-04-17T05:29:40.852Z,9.22
2018-04-17T05:30:41.043Z,9.14
2018-04-17T05:31:41.227Z,9.22
2018-04-17T05:32:41.417Z,9.47
2018-04-17T05:33:41.604Z,9.65
2018-04-17T05:34:41.793Z,9.88
2018-04-17T05:35:41.980Z,10.08
2018-04-17T05:36:42.167Z,10.06
2018-04-17T05:37:42.355Z,9.88
2018-04-17T05:38:42.543Z,9.88
2018-04-17T05:39:42.733Z,10.16
2018-04-17T05:40:42.933Z,10.36
2018-04-17T05:41:43.106Z,10.48
2018-04-17T05:42:43.293Z,10.75
2018-04-17T05:43:43.485Z,10.91
2018-04-17T05:44:43.673Z,10.97
2018-04-17T05:45:43.863Z,11.05
2018-04-17T05:46:44.053Z,11.08
2018-04-17T05:47:44.242Z,10.97
2018-04-17T05:48:44.433Z,10.93
2018-04-17T05:49:44.624Z,10.80
2018-04-17T05:50:44.811Z,10.79
2018-04-17T05:51:45.000Z,11.11
2018-04-17T05:52:45.189Z,11.12
2018-04-17T05:53:45.379Z,11.00
2018-04-17T05:54:45.571Z,11.08
2018-04-17T05:55:45.827Z,11.31
2018-04-17T05:56:45.951Z,11.28
2018-04-17T05:57:46.190Z,11.09
2018-04-17T05:58:46.331Z,11.11
2018-04-17T05:59:46.522Z,11.36
2018-04-17T06:00:46.712Z,11.05
2018-04-17T06:01:46.902Z,10.90
2018-04-17T06:02:47.092Z,10.78
2018-04-17T06:03:47.285Z,10.70
2018-04-17T06:04:47.473Z,10.49
2018-04-17T06:05:47.664Z,10.48
2018-04-17T06:06:47.858Z,10.52
2018-04-17T06:07:48.044Z,10.60
2018-04-17T06:08:48.234Z,10.75
2018-04-17T06:09:48.427Z,10.91
2018-04-17T06:10:48.618Z,11.04
2018-04-17T06:11:48.807Z,11.27
2018-04-17T06:12:49.003Z,11.19
2018-04-17T06:13:49.192Z,11.46
2018-04-17T06:14:49.384Z,11.59
2018-04-17T06:15:49.574Z,11.41
2018-04-17T06:16:49.769Z,11.55
2018-04-17T06:17:49.961Z,11.38
2018-04-17T06:18:50.149Z,11.19
2018-04-17T06:19:50.341Z,11.18
2018-04-17T06:20:50.530Z,11.37
2018-04-17T06:21:50.721Z,11.34
2018-04-17T06:22:50.913Z,11.40
2018-04-17T06:23:51.107Z,11.40
2018-04-17T06:24:51.304Z,11.30
2018-04-17T06:25:51.486Z,11.33
2018-04-17T06:26:51.678Z,11.59
2018-04-17T06:27:51.870Z,11.69
2018-04-17T06:28:52.064Z,11.99
2018-04-17T06:29:52.255Z,12.48
2018-04-17T06:30:52.448Z,12.53
2018-04-17T06:31:52.641Z,12.90
2018-04-17T06:32:52.832Z,13.35
2018-04-17T06:33:53.027Z,13.54
2018-04-17T06:34:53.218Z,13.30
2018-04-17T06:35:53.410Z,13.30
2018-04-17T06:36:53.604Z,13.21
2018-04-17T06:37:53.796Z,13.35
2018-04-17T06:38:53.992Z,13.35
2018-04-17T06:39:54.191Z,13.35
2018-04-17T06:40:54.384Z,12.95
2018-04-17T06:41:54.590Z,12.50
2018-04-17T06:42:54.774Z,12.33
2018-04-17T06:43:54.966Z,12.48
2018-04-17T06:44:55.158Z,12.66
2018-04-17T06:45:55.354Z,12.69
2018-04-17T06:46:55.549Z,12.77
2018-04-17T06:47:55.748Z,12.86
2018-04-17T06:48:55.938Z,12.98
2018-04-17T06:49:56.134Z,12.99
2018-04-17T06:50:56.335Z,12.80
2018-04-17T06:51:56.523Z,12.71
2018-04-17T06:52:56.722Z,13.01
2018-04-17T06:53:56.916Z,12.91
2018-04-17T06:54:57.111Z,13.04
2018-04-17T06:55:57.305Z,13.20
2018-04-17T06:56:57.504Z,13.19
2018-04-17T06:57:57.721Z,13.49
2018-04-17T06:58:57.897Z,13.19
2018-04-17T06:59:58.093Z,13.04
2018-04-17T07:00:58.288Z,13.27
2018-04-17T07:01:58.488Z,13.91
2018-04-17T07:02:58.690Z,14.21
2018-04-17T07:03:58.883Z,14.38
2018-04-17T07:04:59.093Z,14.90
2018-04-17T07:05:59.278Z,15.01
2018-04-17T07:06:59.480Z,14.18
2018-04-17T07:07:59.673Z,13.82
2018-04-17T07:08:59.874Z,13.72
2018-04-17T07:10:00.070Z,14.46
2018-04-17T07:11:00.269Z,14.64
2018-04-17T07:12:00.467Z,14.26
2018-04-17T07:13:00.666Z,14.28
2018-04-17T07:14:00.859Z,14.79
2018-04-17T07:15:01.066Z,15.01
2018-04-17T07:16:01.268Z,15.22
2018-04-17T07:17:01.531Z,14.89
2018-04-17T07:18:01.662Z,15.38
2018-04-17T07:19:01.882Z,15.65
2018-04-17T07:20:02.064Z,15.68
2018-04-17T07:21:02.262Z,15.54
2018-04-17T07:22:02.461Z,15.26
2018-04-17T07:23:02.665Z,15.38
2018-04-17T07:24:02.862Z,15.52
2018-04-17T07:25:03.061Z,15.43
2018-04-17T07:26:03.263Z,15.65
2018-04-17T07:27:03.467Z,15.56
2018-04-17T07:28:03.668Z,15.96
2018-04-17T07:29:03.867Z,16.36
2018-04-17T07:30:04.070Z,15.93
2018-04-17T07:31:04.277Z,15.83
2018-04-17T07:32:04.470Z,15.44
2018-04-17T07:33:04.673Z,15.93
2018-04-17T07:34:04.875Z,15.91
2018-04-17T07:35:05.076Z,15.66
2018-04-17T07:36:05.280Z,15.50
2018-04-17T07:37:05.479Z,15.65
2018-04-17T07:38:05.679Z,15.81
2018-04-17T07:39:05.880Z,15.95
2018-04-17T07:40:06.084Z,15.29
2018-04-17T07:41:06.284Z,14.83
2018-04-17T07:42:06.485Z,15.23
2018-04-17T07:43:06.692Z,14.87
2018-04-17T07:44:06.889Z,14.19
2018-04-17T07:45:07.090Z,14.21
2018-04-17T07:46:07.291Z,14.46
2018-04-17T07:47:07.493Z,14.34
2018-04-17T07:48:07.694Z,14.30
2018-04-17T07:49:07.896Z,14.26
2018-04-17T07:50:08.095Z,14.40
2018-04-17T07:51:08.295Z,14.13
2018-04-17T07:52:08.497Z,14.36
2018-04-17T07:53:08.698Z,14.51
2018-04-17T07:54:08.898Z,14.89
2018-04-17T07:55:09.100Z,14.74
2018-04-17T07:56:09.302Z,14.73
2018-04-17T07:57:09.504Z,14.95
2018-04-17T07:58:09.704Z,15.32
2018-04-17T07:59:09.908Z,15.54
2018-04-17T08:00:10.105Z,15.73
2018-04-17T08:01:10.306Z,15.48
2018-04-17T08:02:10.504Z,15.33
2018-04-17T08:03:10.708Z,15.62
2018-04-17T08:04:10.905Z,16.55
2018-04-17T08:05:11.109Z,16.21
2018-04-17T08:06:11.308Z,15.77
2018-04-17T08:07:11.512Z,15.62
2018-04-17T08:08:11.710Z,15.44
2018-04-17T08:09:11.910Z,15.47
2018-04-17T08:10:12.111Z,16.10
2018-04-17T08:11:12.311Z,16.24
2018-04-17T08:12:12.512Z,16.10
2018-04-17T08:13:12.714Z,16.18
2018-04-17T08:14:12.917Z,16.02
2018-04-17T08:15:13.123Z,16.18
2018-04-17T08:16:13.320Z,16.42
2018-04-17T08:17:13.519Z,16.36
2018-04-17T08:18:13.721Z,16.57
2018-04-17T08:19:13.923Z,17.28
2018-04-17T08:20:14.122Z,17.47
2018-04-17T08:21:14.329Z,17.52
2018-04-17T08:22:14.526Z,16.87
2018-04-17T08:23:14.728Z,16.90
2018-04-17T08:24:14.930Z,16.58
2018-04-17T08:25:15.132Z,16.98
2018-04-17T08:26:15.335Z,17.81
2018-04-17T08:27:15.533Z,18.27
2018-04-17T08:28:15.734Z,18.83
2018-04-17T08:29:15.933Z,19.54
2018-04-17T08:30:16.138Z,20.19
2018-04-17T08:31:16.336Z,20.58
2018-04-17T08:32:16.538Z,20.83
2018-04-17T08:33:16.742Z,20.92
2018-04-17T08:34:16.942Z,21.18
2018-04-17T08:35:17.143Z,21.41
2018-04-17T08:36:17.345Z,21.77
2018-04-17T08:37:17.546Z,20.48
2018-04-17T08:38:17.750Z,19.38
2018-04-17T08:39:17.951Z,18.58
2018-04-17T08:40:18.156Z,18.66
2018-04-17T08:41:18.354Z,18.66
2018-04-17T08:42:18.556Z,18.75
2018-04-17T08:43:18.762Z,18.86
2018-04-17T08:44:18.959Z,19.17
2018-04-17T08:45:19.163Z,19.32
2018-04-17T08:46:19.366Z,19.13
2018-04-17T08:47:19.567Z,19.63
2018-04-17T08:48:19.771Z,18.94
2018-04-17T08:49:19.982Z,18.54
2018-04-17T08:50:20.175Z,19.26
2018-04-17T08:51:20.377Z,19.82
2018-04-17T08:52:20.581Z,20.19
2018-04-17T08:53:20.781Z,20.50
2018-04-17T08:54:20.982Z,20.60
2018-04-17T08:55:21.186Z,21.10
2018-04-17T08:56:21.389Z,21.44
2018-04-17T08:57:21.593Z,21.66
2018-04-17T08:58:21.795Z,21.63
2018-04-17T08:59:22.005Z,22.04
2018-04-17T09:00:22.198Z,21.74
2018-04-17T09:01:22.407Z,22.00
2018-04-17T09:02:22.603Z,21.82
2018-04-17T09:03:22.804Z,21.94
2018-04-17T09:04:23.008Z,21.91
2018-04-17T09:05:23.208Z,22.18
2018-04-17T09:06:23.411Z,20.52
2018-04-17T09:07:23.616Z,19.53
2018-04-17T09:08:23.814Z,19.82
2018-04-17T09:09:24.018Z,19.90
2018-04-17T09:10:24.220Z,18.81
2018-04-17T09:11:24.423Z,18.86
2018-04-17T09:12:24.623Z,18.96
2018-04-17T09:13:24.826Z,19.01
2018-04-17T09:14:25.029Z,19.08
2018-04-17T09:15:25.231Z,19.81
2018-04-17T09:16:25.435Z,20.53
2018-04-17T09:17:25.636Z,20.98
2018-04-17T09:18:25.844Z,21.13
2018-04-17T09:19:26.039Z,21.22
2018-04-17T09:20:26.239Z,20.23
2018-04-17T09:21:26.441Z,19.27
2018-04-17T09:22:26.643Z,19.27
2018-04-17T09:23:26.844Z,19.22
2018-04-17T09:24:27.047Z,19.68
2018-04-17T09:25:27.253Z,20.19
2018-04-17T09:26:27.451Z,21.13
2018-04-17T09:27:27.653Z,21.84
2018-04-17T09:28:27.853Z,20.56
2018-04-17T09:29:28.052Z,20.65
2018-04-17T09:30:28.253Z,20.36
2018-04-17T09:31:28.455Z,20.92
2018-04-17T09:32:28.657Z,21.19
2018-04-17T09:33:28.858Z,20.97
2018-04-17T09:34:29.075Z,21.22
2018-04-17T09:35:29.261Z,21.69
2018-04-17T09:36:29.461Z,21.98
2018-04-17T09:37:29.662Z,22.40
2018-04-17T09:38:29.863Z,21.75
2018-04-17T09:39:30.071Z,20.46
2018-04-17T09:40:30.262Z,20.44
2018-04-17T09:41:30.462Z,20.75
2018-04-17T09:42:30.699Z,20.88
2018-04-17T09:43:30.865Z,21.34
2018-04-17T09:44:31.066Z,21.74
2018-04-17T09:45:31.265Z,22.15
2018-04-17T09:46:31.476Z,22.48
2018-04-17T09:47:31.664Z,22.73
2018-04-17T09:48:31.864Z,22.33
2018-04-17T09:49:32.065Z,22.40
2018-04-17T09:50:32.267Z,22.13
2018-04-17T09:51:32.469Z,21.80
2018-04-17T09:52:32.666Z,21.81
2018-04-17T09:53:32.868Z,22.11
2018-04-17T09:54:33.067Z,22.71
2018-04-17T09:55:33.268Z,22.67
2018-04-17T09:56:33.467Z,22.85
2018-04-17T09:57:33.712Z,23.04
2018-04-17T09:58:33.868Z,23.23
2018-04-17T09:59:34.068Z,23.26
2018-04-17T10:00:34.268Z,23.56
2018-04-17T10:01:34.468Z,23.28
2018-04-17T10:02:34.668Z,23.21
2018-04-17T10:03:34.874Z,22.81
2018-04-17T10:04:35.075Z,22.61
2018-04-17T10:05:35.269Z,22.55
2018-04-17T10:06:35.469Z,22.58
2018-04-17T10:07:35.668Z,22.30
2018-04-17T10:08:35.869Z,22.53
2018-04-17T10:09:36.067Z,22.04
2018-04-17T10:10:36.266Z,22.34
2018-04-17T10:11:36.468Z,22.53
2018-04-17T10:12:36.670Z,22.78
2018-04-17T10:13:36.864Z,22.49
2018-04-17T10:14:37.062Z,22.27
2018-04-17T10:15:37.262Z,22.31
2018-04-17T10:16:37.460Z,22.13
2018-04-17T10:17:37.660Z,21.80
2018-04-17T10:18:37.859Z,21.26
2018-04-17T10:19:38.058Z,21.23
2018-04-17T10:20:38.255Z,21.75
2018-04-17T10:21:38.454Z,22.07
2018-04-17T10:22:38.661Z,22.18
2018-04-17T10:23:38.850Z,22.11
2018-04-17T10:24:39.055Z,21.98
2018-04-17T10:25:39.246Z,21.82
2018-04-17T10:26:39.446Z,21.56
2018-04-17T10:27:39.642Z,21.23
2018-04-17T10:28:39.838Z,21.30
2018-04-17T10:29:40.040Z,21.38
2018-04-17T10:30:40.233Z,21.32
2018-04-17T10:31:40.431Z,20.92
2018-04-17T10:32:40.628Z,20.74
2018-04-17T10:33:40.824Z,20.79
2018-04-17T10:34:41.021Z,20.88
2018-04-17T10:35:41.219Z,20.80
2018-04-17T10:36:41.417Z,20.97
2018-04-17T10:37:41.612Z,20.92
2018-04-17T10:38:41.817Z,21.22
2018-04-17T10:39:42.009Z,21.41
2018-04-17T10:40:42.203Z,21.67
2018-04-17T10:41:42.396Z,21.96
2018-04-17T10:42:42.594Z,21.91
2018-04-17T10:43:42.790Z,21.90
2018-04-17T10:44:42.992Z,22.00
2018-04-17T10:45:43.182Z,21.59
2018-04-17T10:46:43.380Z,21.38
2018-04-17T10:47:43.576Z,21.62
2018-04-17T10:48:43.773Z,21.13
2018-04-17T10:49:43.971Z,21.20
2018-04-17T10:50:44.168Z,21.25
2018-04-17T10:51:44.364Z,21.19
2018-04-17T10:52:44.563Z,21.63
2018-04-17T10:53:44.779Z,21.81
2018-04-17T10:54:44.953Z,21.82
2018-04-17T10:55:45.152Z,22.00
2018-04-17T10:56:45.346Z,21.98
2018-04-17T10:57:45.543Z,22.03
2018-04-17T10:58:45.741Z,22.16
2018-04-17T10:59:45.976Z,22.21
2018-04-17T11:00:46.134Z,22.21
2018-04-17T11:01:46.330Z,22.56
2018-04-17T11:02:46.526Z,22.48
2018-04-17T11:03:46.723Z,22.18
2018-04-17T11:04:46.923Z,22.34
2018-04-17T11:05:47.117Z,22.33
2018-04-17T11:06:47.313Z,22.23
2018-04-17T11:07:47.511Z,21.67
2018-04-17T11:08:47.707Z,21.55
2018-04-17T11:09:47.904Z,21.19
2018-04-17T11:10:48.097Z,20.93
2018-04-17T11:11:48.299Z,20.65
2018-04-17T11:12:48.494Z,20.71
2018-04-17T11:13:48.689Z,20.79
2018-04-17T11:14:48.885Z,20.64
2018-04-17T11:15:49.079Z,20.71
2018-04-17T11:16:49.277Z,20.70
2018-04-17T11:17:49.473Z,20.82
2018-04-17T11:18:49.670Z,20.89
2018-04-17T11:19:49.865Z,20.89
2018-04-17T11:20:50.060Z,20.85
2018-04-17T11:21:50.255Z,20.83
2018-04-17T11:22:50.451Z,20.88
2018-04-17T11:23:50.646Z,20.92
2018-04-17T11:24:50.839Z,20.88
2018-04-17T11:25:51.035Z,20.92
2018-04-17T11:26:51.232Z,21.04
2018-04-17T11:27:51.468Z,21.00
2018-04-17T11:28:51.623Z,20.83
2018-04-17T11:29:51.817Z,20.73
2018-04-17T11:30:52.010Z,20.64
2018-04-17T11:31:52.203Z,20.83
2018-04-17T11:32:52.399Z,20.82
2018-04-17T11:33:52.596Z,20.50
2018-04-17T11:34:52.791Z,20.37
2018-04-17T11:35:52.985Z,19.67
2018-04-17T11:36:53.177Z,19.38
2018-04-17T11:37:53.374Z,19.30
2018-04-17T11:38:53.567Z,19.07
2018-04-17T11:39:53.761Z,19.22
2018-04-17T11:40:53.955Z,19.45
2018-04-17T11:41:54.149Z,19.53
2018-04-17T11:42:54.398Z,19.70
2018-04-17T11:43:54.535Z,20.00
2018-04-17T11:44:54.731Z,20.37
2018-04-17T11:45:54.925Z,20.73
2018-04-17T11:46:55.124Z,20.97
2018-04-17T11:47:55.313Z,20.98
2018-04-17T11:48:55.507Z,20.86
2018-04-17T11:49:55.699Z,20.60
2018-04-17T11:50:55.895Z,20.80
2018-04-17T11:51:56.089Z,20.93
2018-04-17T11:52:56.284Z,20.86
2018-04-17T11:53:56.475Z,20.93
2018-04-17T11:54:56.669Z,20.52
2018-04-17T11:55:56.861Z,20.30
2018-04-17T11:56:57.057Z,20.41
2018-04-17T11:57:57.251Z,20.36
2018-04-17T11:58:57.442Z,20.46
2018-04-17T11:59:57.635Z,20.46
2018-04-17T12:00:57.829Z,20.67
2018-04-17T12:01:58.024Z,20.56
2018-04-17T12:02:58.217Z,20.33
2018-04-17T12:03:58.410Z,20.19
2018-04-17T12:04:58.602Z,20.18
2018-04-17T12:05:58.794Z,20.23
2018-04-17T12:06:58.987Z,20.14
2018-04-17T12:07:59.181Z,20.23
2018-04-17T12:08:59.375Z,20.26
2018-04-17T12:09:59.576Z,20.22
2018-04-17T12:10:59.758Z,20.27
2018-04-17T12:11:59.951Z,20.56
2018-04-17T12:13:00.146Z,20.64
2018-04-17T12:14:00.338Z,20.86
2018-04-17T12:15:00.529Z,21.10
2018-04-17T12:16:00.723Z,21.25
2018-04-17T12:17:00.937Z,21.30
2018-04-17T12:18:01.130Z,21.45
2018-04-17T12:19:01.311Z,21.63
2018-04-17T12:20:01.506Z,21.93
2018-04-17T12:21:01.700Z,22.01
2018-04-17T12:22:01.894Z,21.69
2018-04-17T12:23:02.089Z,22.04
2018-04-17T12:24:02.281Z,21.90
2018-04-17T12:25:02.473Z,21.26
2018-04-17T12:26:02.667Z,20.93
2018-04-17T12:27:02.862Z,20.65
2018-04-17T12:28:03.055Z,20.75
2018-04-17T12:29:03.248Z,20.86
2018-04-17T12:30:03.444Z,21.16
2018-04-17T12:31:03.634Z,21.34
2018-04-17T12:32:03.828Z,21.78
2018-04-17T12:33:04.025Z,22.01
2018-04-17T12:34:04.216Z,22.07
2018-04-17T12:35:04.409Z,22.28
2018-04-17T12:36:04.603Z,22.18
2018-04-17T12:37:04.798Z,22.33
2018-04-17T12:38:05.000Z,22.16
2018-04-17T12:39:05.186Z,21.67
2018-04-17T12:40:05.381Z,21.80
2018-04-17T12:41:05.576Z,21.84
2018-04-17T12:42:05.770Z,21.59
2018-04-17T12:43:05.965Z,21.48
2018-04-17T12:44:06.157Z,21.75
2018-04-17T12:45:06.352Z,21.81
2018-04-17T12:46:06.547Z,21.23
2018-04-17T12:47:06.741Z,21.30
2018-04-17T12:48:06.940Z,21.25
2018-04-17T12:49:07.129Z,21.22
2018-04-17T12:50:07.326Z,21.18
2018-04-17T12:51:07.522Z,21.28
2018-04-17T12:52:07.716Z,21.26
2018-04-17T12:53:07.910Z,21.35
2018-04-17T12:54:08.105Z,21.40
2018-04-17T12:55:08.298Z,21.63
2018-04-17T12:56:08.494Z,21.44
2018-04-17T12:57:08.687Z,21.58
2018-04-17T12:58:08.880Z,21.84
2018-04-17T12:59:09.074Z,21.80
2018-04-17T13:00:09.272Z,21.63
2018-04-17T13:01:09.465Z,21.82
2018-04-17T13:02:09.656Z,21.66
2018-04-17T13:03:09.852Z,21.63
2018-04-17T13:04:10.046Z,21.63
2018-04-17T13:05:10.240Z,21.84